sensor_id;sensor_type;location;lat;lon;timestamp;pressure;altitude;pressure_sealevel;temperature;humidity
31483;BME280;18103;52.246;8.052;2023-03-26T00:00:40;99378.25;;;7.82;86.74
31483;BME280;18103;52.246;8.052;2023-03-26T00:03:12;99390.78;;;7.79;86.94
31483;BME280;18103;52.246;8.052;2023-03-26T00:05:39;99390.53;;;7.82;87.02
31483;BME280;18103;52.246;8.052;2023-03-26T00:08:05;99388.75;;;7.82;86.79
31483;BME280;18103;52.246;8.052;2023-03-26T00:10:35;99405.34;;;7.83;86.90
31483;BME280;18103;52.246;8.052;2023-03-26T00:13:04;99397.84;;;7.78;86.63
31483;BME280;18103;52.246;8.052;2023-03-26T00:15:33;99403.22;;;7.77;86.64
31483;BME280;18103;52.246;8.052;2023-03-26T00:17:59;99400.47;;;7.78;86.34
31483;BME280;18103;52.246;8.052;2023-03-26T00:20:25;99388.56;;;7.74;86.61
31483;BME280;18103;52.246;8.052;2023-03-26T00:22:53;99399.19;;;7.73;86.16
31483;BME280;18103;52.246;8.052;2023-03-26T00:25:24;99389.97;;;7.78;86.41
31483;BME280;18103;52.246;8.052;2023-03-26T00:27:52;99403.47;;;7.74;86.40
31483;BME280;18103;52.246;8.052;2023-03-26T00:30:20;99400.34;;;7.80;86.01
31483;BME280;18103;52.246;8.052;2023-03-26T00:32:47;99400.59;;;7.77;86.16
31483;BME280;18103;52.246;8.052;2023-03-26T00:35:13;99406.00;;;7.75;86.16
31483;BME280;18103;52.246;8.052;2023-03-26T00:37:38;99409.19;;;7.79;85.83
31483;BME280;18103;52.246;8.052;2023-03-26T00:40:08;99415.09;;;7.71;85.83
31483;BME280;18103;52.246;8.052;2023-03-26T00:42:36;99418.16;;;7.76;85.81
31483;BME280;18103;52.246;8.052;2023-03-26T00:45:05;99419.69;;;7.79;85.89
31483;BME280;18103;52.246;8.052;2023-03-26T00:47:32;99419.31;;;7.83;86.09
31483;BME280;18103;52.246;8.052;2023-03-26T00:49:58;99423.16;;;7.79;85.96
31483;BME280;18103;52.246;8.052;2023-03-26T00:52:23;99420.41;;;7.81;86.14
31483;BME280;18103;52.246;8.052;2023-03-26T00:54:55;99432.56;;;7.82;85.90
31483;BME280;18103;52.246;8.052;2023-03-26T00:57:21;99421.44;;;7.90;85.73
31483;BME280;18103;52.246;8.052;2023-03-26T00:59:52;99425.03;;;7.88;85.95
31483;BME280;18103;52.246;8.052;2023-03-26T01:02:20;99427.31;;;7.82;86.20
31483;BME280;18103;52.246;8.052;2023-03-26T01:04:50;99428.59;;;7.87;86.05
31483;BME280;18103;52.246;8.052;2023-03-26T01:07:21;99427.19;;;7.83;86.17
31483;BME280;18103;52.246;8.052;2023-03-26T01:09:58;99431.88;;;7.80;86.25
31483;BME280;18103;52.246;8.052;2023-03-26T01:12:28;99422.56;;;7.76;86.27
31483;BME280;18103;52.246;8.052;2023-03-26T01:15:01;99422.09;;;7.70;85.78
31483;BME280;18103;52.246;8.052;2023-03-26T01:17:28;99424.47;;;7.74;86.15
31483;BME280;18103;52.246;8.052;2023-03-26T01:22:49;99412.53;;;7.81;85.64
31483;BME280;18103;52.246;8.052;2023-03-26T01:25:16;99407.31;;;7.69;85.81
31483;BME280;18103;52.246;8.052;2023-03-26T01:27:50;99416.72;;;7.72;85.69
31483;BME280;18103;52.246;8.052;2023-03-26T01:33:04;99401.03;;;7.82;85.64
31483;BME280;18103;52.246;8.052;2023-03-26T01:41:23;99396.91;;;7.68;86.42
31483;BME280;18103;52.246;8.052;2023-03-26T01:44:05;99398.34;;;7.72;85.86
31483;BME280;18103;52.246;8.052;2023-03-26T01:46:38;99397.13;;;7.76;86.09
31483;BME280;18103;52.246;8.052;2023-03-26T01:49:05;99385.34;;;7.70;86.12
31483;BME280;18103;52.246;8.052;2023-03-26T01:51:38;99384.97;;;7.75;85.93
31483;BME280;18103;52.246;8.052;2023-03-26T01:54:13;99383.09;;;7.66;85.82
31483;BME280;18103;52.246;8.052;2023-03-26T01:56:51;99381.69;;;7.62;85.96
31483;BME280;18103;52.246;8.052;2023-03-26T02:04:48;99369.47;;;7.40;85.63
31483;BME280;18103;52.246;8.052;2023-03-26T02:10:29;99372.81;;;7.42;86.04
31483;BME280;18103;52.246;8.052;2023-03-26T02:12:55;99376.38;;;7.41;85.55
31483;BME280;18103;52.246;8.052;2023-03-26T02:15:22;99382.00;;;7.36;85.76
31483;BME280;18103;52.246;8.052;2023-03-26T02:17:52;99373.41;;;7.34;85.73
31483;BME280;18103;52.246;8.052;2023-03-26T02:20:19;99370.09;;;7.32;85.45
31483;BME280;18103;52.246;8.052;2023-03-26T02:22:46;99365.78;;;7.31;85.21
31483;BME280;18103;52.246;8.052;2023-03-26T02:25:17;99370.22;;;7.30;85.54
31483;BME280;18103;52.246;8.052;2023-03-26T02:27:45;99366.13;;;7.38;85.15
31483;BME280;18103;52.246;8.052;2023-03-26T02:30:18;99368.53;;;7.29;85.50
31483;BME280;18103;52.246;8.052;2023-03-26T02:32:44;99357.91;;;7.31;85.75
31483;BME280;18103;52.246;8.052;2023-03-26T02:35:11;99359.81;;;7.29;85.35
31483;BME280;18103;52.246;8.052;2023-03-26T02:37:38;99354.38;;;7.21;85.75
31483;BME280;18103;52.246;8.052;2023-03-26T02:40:05;99349.31;;;7.29;85.72
31483;BME280;18103;52.246;8.052;2023-03-26T02:42:35;99343.50;;;7.25;85.63
31483;BME280;18103;52.246;8.052;2023-03-26T02:45:01;99334.81;;;7.25;85.63
31483;BME280;18103;52.246;8.052;2023-03-26T02:47:26;99339.53;;;7.31;85.07
31483;BME280;18103;52.246;8.052;2023-03-26T02:49:52;99328.78;;;7.34;85.25
31483;BME280;18103;52.246;8.052;2023-03-26T02:52:20;99334.56;;;7.28;86.01
31483;BME280;18103;52.246;8.052;2023-03-26T02:54:50;99336.72;;;7.23;85.61
31483;BME280;18103;52.246;8.052;2023-03-26T02:57:18;99328.69;;;7.24;85.87
31483;BME280;18103;52.246;8.052;2023-03-26T02:59:46;99325.94;;;7.26;85.53
31483;BME280;18103;52.246;8.052;2023-03-26T03:02:17;99333.16;;;7.12;85.69
31483;BME280;18103;52.246;8.052;2023-03-26T03:04:42;99330.63;;;7.22;85.82
31483;BME280;18103;52.246;8.052;2023-03-26T03:07:08;99328.13;;;7.09;85.89
31483;BME280;18103;52.246;8.052;2023-03-26T03:09:38;99332.78;;;7.17;85.91
31483;BME280;18103;52.246;8.052;2023-03-26T03:12:07;99333.25;;;7.22;85.80
31483;BME280;18103;52.246;8.052;2023-03-26T03:14:34;99332.28;;;7.34;85.85
31483;BME280;18103;52.246;8.052;2023-03-26T03:17:00;99321.00;;;7.44;84.80
31483;BME280;18103;52.246;8.052;2023-03-26T03:19:28;99324.81;;;7.40;85.42
31483;BME280;18103;52.246;8.052;2023-03-26T03:21:53;99327.06;;;7.44;85.26
31483;BME280;18103;52.246;8.052;2023-03-26T03:24:18;99322.19;;;7.40;85.62
31483;BME280;18103;52.246;8.052;2023-03-26T03:26:44;99322.94;;;7.42;85.91
31483;BME280;18103;52.246;8.052;2023-03-26T03:29:10;99324.69;;;7.41;86.18
31483;BME280;18103;52.246;8.052;2023-03-26T03:31:37;99308.97;;;7.62;84.75
31483;BME280;18103;52.246;8.052;2023-03-26T03:34:02;99306.59;;;7.59;84.79
31483;BME280;18103;52.246;8.052;2023-03-26T03:36:28;99311.38;;;7.54;85.82
31483;BME280;18103;52.246;8.052;2023-03-26T03:38:57;99318.09;;;7.47;85.70
31483;BME280;18103;52.246;8.052;2023-03-26T03:41:29;99318.38;;;7.65;84.99
31483;BME280;18103;52.246;8.052;2023-03-26T03:43:54;99313.59;;;7.70;84.67
31483;BME280;18103;52.246;8.052;2023-03-26T03:46:26;99312.81;;;7.58;85.46
31483;BME280;18103;52.246;8.052;2023-03-26T03:48:51;99307.38;;;7.50;85.94
31483;BME280;18103;52.246;8.052;2023-03-26T03:51:17;99306.78;;;7.46;86.42
31483;BME280;18103;52.246;8.052;2023-03-26T03:53:42;99304.97;;;7.47;86.37
31483;BME280;18103;52.246;8.052;2023-03-26T03:56:10;99307.63;;;7.68;84.99
31483;BME280;18103;52.246;8.052;2023-03-26T03:58:40;99307.63;;;7.68;85.30
31483;BME280;18103;52.246;8.052;2023-03-26T04:01:09;99305.13;;;7.66;84.85
31483;BME280;18103;52.246;8.052;2023-03-26T04:03:38;99315.44;;;7.58;85.54
31483;BME280;18103;52.246;8.052;2023-03-26T04:06:07;99313.00;;;7.66;85.57
31483;BME280;18103;52.246;8.052;2023-03-26T04:08:37;99300.78;;;7.77;84.79
31483;BME280;18103;52.246;8.052;2023-03-26T04:11:03;99299.31;;;7.63;85.75
31483;BME280;18103;52.246;8.052;2023-03-26T04:13:31;99289.22;;;7.68;85.81
31483;BME280;18103;52.246;8.052;2023-03-26T04:15:58;99286.13;;;7.74;85.30
31483;BME280;18103;52.246;8.052;2023-03-26T04:18:24;99284.44;;;7.73;85.57
31483;BME280;18103;52.246;8.052;2023-03-26T04:20:52;99291.69;;;7.81;85.46
31483;BME280;18103;52.246;8.052;2023-03-26T04:23:21;99289.44;;;7.76;85.77
31483;BME280;18103;52.246;8.052;2023-03-26T04:25:52;99289.00;;;7.92;84.78
31483;BME280;18103;52.246;8.052;2023-03-26T04:28:30;99282.69;;;7.83;85.27
31483;BME280;18103;52.246;8.052;2023-03-26T04:30:58;99281.31;;;7.79;85.34
31483;BME280;18103;52.246;8.052;2023-03-26T04:33:32;99284.63;;;7.81;85.62
31483;BME280;18103;52.246;8.052;2023-03-26T04:35:58;99283.81;;;7.81;85.56
31483;BME280;18103;52.246;8.052;2023-03-26T04:38:29;99279.16;;;7.94;84.81
31483;BME280;18103;52.246;8.052;2023-03-26T04:40:58;99280.78;;;7.85;85.69
31483;BME280;18103;52.246;8.052;2023-03-26T04:43:24;99283.81;;;7.81;85.60
31483;BME280;18103;52.246;8.052;2023-03-26T04:45:51;99275.75;;;7.73;85.97
31483;BME280;18103;52.246;8.052;2023-03-26T04:48:17;99285.22;;;7.85;85.65
31483;BME280;18103;52.246;8.052;2023-03-26T04:50:46;99275.59;;;7.95;85.55
31483;BME280;18103;52.246;8.052;2023-03-26T04:53:17;99288.66;;;7.85;85.69
31483;BME280;18103;52.246;8.052;2023-03-26T04:58:13;99274.44;;;7.88;86.04
31483;BME280;18103;52.246;8.052;2023-03-26T05:00:40;99274.00;;;7.83;85.84
31483;BME280;18103;52.246;8.052;2023-03-26T05:03:08;99259.81;;;7.95;85.28
31483;BME280;18103;52.246;8.052;2023-03-26T05:05:39;99263.72;;;8.01;85.13
31483;BME280;18103;52.246;8.052;2023-03-26T05:08:05;99253.22;;;8.01;85.15
31483;BME280;18103;52.246;8.052;2023-03-26T05:10:31;99245.84;;;7.95;85.36
31483;BME280;18103;52.246;8.052;2023-03-26T05:12:58;99243.50;;;8.01;85.22
31483;BME280;18103;52.246;8.052;2023-03-26T05:15:24;99248.78;;;8.01;84.75
31483;BME280;18103;52.246;8.052;2023-03-26T05:17:52;99253.06;;;8.02;85.11
31483;BME280;18103;52.246;8.052;2023-03-26T05:20:24;99249.75;;;8.00;84.96
31483;BME280;18103;52.246;8.052;2023-03-26T05:22:50;99246.53;;;7.97;85.65
31483;BME280;18103;52.246;8.052;2023-03-26T05:25:16;99241.88;;;8.00;85.23
31483;BME280;18103;52.246;8.052;2023-03-26T05:27:45;99245.59;;;7.98;85.39
31483;BME280;18103;52.246;8.052;2023-03-26T05:30:15;99241.16;;;7.98;85.62
31483;BME280;18103;52.246;8.052;2023-03-26T05:32:41;99233.53;;;7.95;85.70
31483;BME280;18103;52.246;8.052;2023-03-26T05:35:10;99239.75;;;7.94;86.18
31483;BME280;18103;52.246;8.052;2023-03-26T05:37:40;99235.13;;;8.08;85.71
31483;BME280;18103;52.246;8.052;2023-03-26T05:40:09;99233.91;;;8.12;85.19
31483;BME280;18103;52.246;8.052;2023-03-26T05:42:39;99235.94;;;8.08;85.24
31483;BME280;18103;52.246;8.052;2023-03-26T05:45:09;99225.25;;;8.00;85.68
31483;BME280;18103;52.246;8.052;2023-03-26T05:47:35;99225.38;;;7.98;86.09
31483;BME280;18103;52.246;8.052;2023-03-26T05:50:02;99225.84;;;8.03;85.63
31483;BME280;18103;52.246;8.052;2023-03-26T05:52:28;99233.19;;;8.10;85.80
31483;BME280;18103;52.246;8.052;2023-03-26T05:54:53;99226.38;;;8.07;85.54
31483;BME280;18103;52.246;8.052;2023-03-26T05:57:19;99221.56;;;8.12;84.81
31483;BME280;18103;52.246;8.052;2023-03-26T05:59:46;99227.66;;;8.13;85.34
31483;BME280;18103;52.246;8.052;2023-03-26T06:02:14;99224.66;;;8.17;85.32
31483;BME280;18103;52.246;8.052;2023-03-26T06:04:42;99219.25;;;8.19;85.52
31483;BME280;18103;52.246;8.052;2023-03-26T06:07:12;99212.06;;;8.21;85.26
31483;BME280;18103;52.246;8.052;2023-03-26T06:09:41;99211.66;;;8.26;85.00
31483;BME280;18103;52.246;8.052;2023-03-26T06:12:09;99216.94;;;8.26;85.33
31483;BME280;18103;52.246;8.052;2023-03-26T06:14:37;99212.50;;;8.26;85.25
31483;BME280;18103;52.246;8.052;2023-03-26T06:17:02;99207.53;;;8.33;85.19
31483;BME280;18103;52.246;8.052;2023-03-26T06:19:28;99209.28;;;8.22;85.12
31483;BME280;18103;52.246;8.052;2023-03-26T06:21:53;99196.69;;;8.16;85.63
31483;BME280;18103;52.246;8.052;2023-03-26T06:24:24;99194.59;;;8.10;85.90
31483;BME280;18103;52.246;8.052;2023-03-26T06:26:52;99194.50;;;8.21;85.87
31483;BME280;18103;52.246;8.052;2023-03-26T06:29:17;99193.38;;;8.14;86.25
31483;BME280;18103;52.246;8.052;2023-03-26T06:31:43;99188.53;;;8.19;85.82
31483;BME280;18103;52.246;8.052;2023-03-26T06:34:08;99182.91;;;8.24;85.88
31483;BME280;18103;52.246;8.052;2023-03-26T06:36:34;99189.94;;;8.33;85.70
31483;BME280;18103;52.246;8.052;2023-03-26T06:39:02;99181.97;;;8.45;85.21
31483;BME280;18103;52.246;8.052;2023-03-26T06:41:28;99185.81;;;8.40;85.77
31483;BME280;18103;52.246;8.052;2023-03-26T06:43:56;99190.38;;;8.38;86.09
31483;BME280;18103;52.246;8.052;2023-03-26T06:46:27;99188.59;;;8.39;86.47
31483;BME280;18103;52.246;8.052;2023-03-26T06:48:55;99188.63;;;8.49;85.13
31483;BME280;18103;52.246;8.052;2023-03-26T06:51:20;99179.78;;;8.50;85.51
31483;BME280;18103;52.246;8.052;2023-03-26T06:53:45;99184.91;;;8.51;84.78
31483;BME280;18103;52.246;8.052;2023-03-26T06:56:11;99179.44;;;8.43;85.48
31483;BME280;18103;52.246;8.052;2023-03-26T06:58:36;99182.97;;;8.53;85.49
31483;BME280;18103;52.246;8.052;2023-03-26T07:01:02;99179.09;;;8.57;85.54
31483;BME280;18103;52.246;8.052;2023-03-26T07:03:27;99181.47;;;8.61;85.76
31483;BME280;18103;52.246;8.052;2023-03-26T07:05:53;99183.25;;;8.60;85.18
31483;BME280;18103;52.246;8.052;2023-03-26T07:08:21;99182.84;;;8.55;85.60
31483;BME280;18103;52.246;8.052;2023-03-26T07:10:46;99177.97;;;8.60;85.43
31483;BME280;18103;52.246;8.052;2023-03-26T07:13:14;99174.69;;;8.58;85.38
31483;BME280;18103;52.246;8.052;2023-03-26T07:15:39;99168.47;;;8.59;85.70
31483;BME280;18103;52.246;8.052;2023-03-26T07:18:07;99164.28;;;8.56;85.50
31483;BME280;18103;52.246;8.052;2023-03-26T07:20:33;99167.16;;;8.44;86.39
31483;BME280;18103;52.246;8.052;2023-03-26T07:23:03;99169.84;;;8.53;86.23
31483;BME280;18103;52.246;8.052;2023-03-26T07:25:29;99160.44;;;8.61;86.86
31483;BME280;18103;52.246;8.052;2023-03-26T07:34:18;99159.31;;;8.53;87.19
31483;BME280;18103;52.246;8.052;2023-03-26T07:40:04;99155.97;;;8.61;86.30
31483;BME280;18103;52.246;8.052;2023-03-26T07:42:53;99156.81;;;8.62;86.41
31483;BME280;18103;52.246;8.052;2023-03-26T07:45:36;99141.31;;;8.59;86.96
31483;BME280;18103;52.246;8.052;2023-03-26T07:48:13;99147.13;;;8.62;87.12
31483;BME280;18103;52.246;8.052;2023-03-26T07:50:40;99146.03;;;8.65;87.32
31483;BME280;18103;52.246;8.052;2023-03-26T07:53:05;99147.66;;;8.66;87.19
31483;BME280;18103;52.246;8.052;2023-03-26T07:55:42;99144.34;;;8.64;87.82
31483;BME280;18103;52.246;8.052;2023-03-26T08:01:04;99141.00;;;8.52;87.48
31483;BME280;18103;52.246;8.052;2023-03-26T08:06:32;99149.75;;;8.62;86.95
31483;BME280;18103;52.246;8.052;2023-03-26T08:09:10;99142.25;;;8.48;87.53
31483;BME280;18103;52.246;8.052;2023-03-26T08:14:26;99139.09;;;8.54;87.16
31483;BME280;18103;52.246;8.052;2023-03-26T08:17:49;99137.72;;;8.60;87.09
31483;BME280;18103;52.246;8.052;2023-03-26T08:22:33;99139.78;;;8.76;87.52
31483;BME280;18103;52.246;8.052;2023-03-26T08:25:16;99133.28;;;8.80;87.77
31483;BME280;18103;52.246;8.052;2023-03-26T08:31:01;99147.28;;;8.90;87.57
31483;BME280;18103;52.246;8.052;2023-03-26T08:33:30;99144.47;;;9.11;86.55
31483;BME280;18103;52.246;8.052;2023-03-26T08:35:58;99147.50;;;9.06;86.85
31483;BME280;18103;52.246;8.052;2023-03-26T08:38:24;99145.75;;;8.97;86.75
31483;BME280;18103;52.246;8.052;2023-03-26T08:54:27;99126.69;;;9.33;85.86
31483;BME280;18103;52.246;8.052;2023-03-26T09:28:42;99115.91;;;9.64;82.08
31483;BME280;18103;52.246;8.052;2023-03-26T09:31:37;99108.19;;;9.80;81.32
31483;BME280;18103;52.246;8.052;2023-03-26T09:34:37;99100.75;;;9.75;81.81
31483;BME280;18103;52.246;8.052;2023-03-26T09:42:45;99098.06;;;9.85;82.03
31483;BME280;18103;52.246;8.052;2023-03-26T09:53:06;99108.06;;;9.82;81.51
31483;BME280;18103;52.246;8.052;2023-03-26T10:01:26;99107.25;;;9.81;79.91
31483;BME280;18103;52.246;8.052;2023-03-26T10:04:22;99103.75;;;9.81;80.09
31483;BME280;18103;52.246;8.052;2023-03-26T10:07:37;99092.63;;;9.87;80.64
31483;BME280;18103;52.246;8.052;2023-03-26T10:10:16;99114.69;;;9.86;81.07
31483;BME280;18103;52.246;8.052;2023-03-26T10:12:51;99111.94;;;9.77;81.32
31483;BME280;18103;52.246;8.052;2023-03-26T10:15:30;99101.13;;;9.81;81.57
31483;BME280;18103;52.246;8.052;2023-03-26T10:23:21;99102.69;;;9.73;81.00
31483;BME280;18103;52.246;8.052;2023-03-26T10:53:09;99092.59;;;9.69;80.30
31483;BME280;18103;52.246;8.052;2023-03-26T10:55:39;99094.31;;;9.60;80.55
31483;BME280;18103;52.246;8.052;2023-03-26T10:58:10;99101.53;;;9.48;80.42
31483;BME280;18103;52.246;8.052;2023-03-26T11:00:42;99104.28;;;9.56;80.20
31483;BME280;18103;52.246;8.052;2023-03-26T11:03:48;99106.78;;;9.58;80.16
31483;BME280;18103;52.246;8.052;2023-03-26T11:14:30;99096.44;;;9.74;79.62
31483;BME280;18103;52.246;8.052;2023-03-26T11:19:55;99092.63;;;9.59;79.77
31483;BME280;18103;52.246;8.052;2023-03-26T11:23:20;99094.59;;;9.57;78.91
31483;BME280;18103;52.246;8.052;2023-03-26T11:31:10;99092.75;;;9.67;79.29
31483;BME280;18103;52.246;8.052;2023-03-26T11:33:43;99092.53;;;9.79;79.14
31483;BME280;18103;52.246;8.052;2023-03-26T11:36:13;99099.47;;;9.80;79.09
31483;BME280;18103;52.246;8.052;2023-03-26T11:38:43;99087.31;;;9.69;79.04
31483;BME280;18103;52.246;8.052;2023-03-26T11:43:48;99092.03;;;9.65;78.17
31483;BME280;18103;52.246;8.052;2023-03-26T11:46:19;99085.34;;;9.71;78.22
31483;BME280;18103;52.246;8.052;2023-03-26T11:48:59;99089.66;;;9.72;78.27
31483;BME280;18103;52.246;8.052;2023-03-26T11:51:31;99092.25;;;9.82;77.72
31483;BME280;18103;52.246;8.052;2023-03-26T11:54:01;99088.34;;;9.86;78.00
31483;BME280;18103;52.246;8.052;2023-03-26T11:56:30;99093.81;;;9.74;78.81
31483;BME280;18103;52.246;8.052;2023-03-26T11:59:17;99082.00;;;9.79;77.63
31483;BME280;18103;52.246;8.052;2023-03-26T12:01:50;99080.78;;;9.73;77.41
31483;BME280;18103;52.246;8.052;2023-03-26T12:04:24;99083.41;;;9.73;77.51
31483;BME280;18103;52.246;8.052;2023-03-26T12:06:57;99084.59;;;9.88;77.50
31483;BME280;18103;52.246;8.052;2023-03-26T12:09:24;99075.72;;;9.89;77.59
31483;BME280;18103;52.246;8.052;2023-03-26T12:11:54;99077.34;;;9.72;77.04
31483;BME280;18103;52.246;8.052;2023-03-26T12:14:28;99081.41;;;9.85;76.13
31483;BME280;18103;52.246;8.052;2023-03-26T12:19:34;99081.59;;;9.73;76.51
31483;BME280;18103;52.246;8.052;2023-03-26T12:22:02;99076.13;;;9.85;77.83
31483;BME280;18103;52.246;8.052;2023-03-26T12:24:30;99076.13;;;9.85;76.96
31483;BME280;18103;52.246;8.052;2023-03-26T12:29:49;99073.69;;;10.01;75.71
31483;BME280;18103;52.246;8.052;2023-03-26T12:32:15;99069.38;;;10.00;76.15
31483;BME280;18103;52.246;8.052;2023-03-26T12:34:43;99069.84;;;9.96;76.01
31483;BME280;18103;52.246;8.052;2023-03-26T12:37:37;99073.06;;;9.89;77.20
31483;BME280;18103;52.246;8.052;2023-03-26T12:42:55;99070.53;;;9.98;76.22
31483;BME280;18103;52.246;8.052;2023-03-26T12:45:53;99079.00;;;9.91;77.58
31483;BME280;18103;52.246;8.052;2023-03-26T12:48:21;99080.13;;;9.89;76.74
31483;BME280;18103;52.246;8.052;2023-03-26T12:54:04;99082.19;;;9.95;77.86
31483;BME280;18103;52.246;8.052;2023-03-26T12:56:40;99090.56;;;10.08;77.15
31483;BME280;18103;52.246;8.052;2023-03-26T13:01:53;99079.56;;;9.67;77.49
31483;BME280;18103;52.246;8.052;2023-03-26T13:18:53;99081.13;;;9.60;77.02
31483;BME280;18103;52.246;8.052;2023-03-26T13:37:58;99086.31;;;9.42;76.83
31483;BME280;18103;52.246;8.052;2023-03-26T13:40:56;99091.84;;;9.49;76.58
31483;BME280;18103;52.246;8.052;2023-03-26T13:49:08;99092.03;;;9.65;76.36
31483;BME280;18103;52.246;8.052;2023-03-26T13:59:43;99099.09;;;9.37;75.54
31483;BME280;18103;52.246;8.052;2023-03-26T14:02:21;99101.84;;;9.45;75.76
31483;BME280;18103;52.246;8.052;2023-03-26T14:04:54;99098.28;;;9.36;75.00
31483;BME280;18103;52.246;8.052;2023-03-26T14:07:31;99099.69;;;9.31;74.26
31483;BME280;18103;52.246;8.052;2023-03-26T14:10:17;99105.47;;;9.34;75.39
31483;BME280;18103;52.246;8.052;2023-03-26T14:31:38;99111.16;;;9.39;75.20
31483;BME280;18103;52.246;8.052;2023-03-26T14:37:41;99113.81;;;9.20;73.64
31483;BME280;18103;52.246;8.052;2023-03-26T14:40:27;99117.69;;;9.25;73.97
31483;BME280;18103;52.246;8.052;2023-03-26T14:43:12;99118.81;;;9.23;72.74
31483;BME280;18103;52.246;8.052;2023-03-26T14:46:17;99126.19;;;9.10;73.37
31483;BME280;18103;52.246;8.052;2023-03-26T14:54:48;99126.44;;;9.16;72.83
31483;BME280;18103;52.246;8.052;2023-03-26T15:01:00;99125.91;;;9.13;73.07
31483;BME280;18103;52.246;8.052;2023-03-26T15:29:13;99152.25;;;9.03;72.41
31483;BME280;18103;52.246;8.052;2023-03-26T15:43:11;99164.03;;;8.89;71.87
31483;BME280;18103;52.246;8.052;2023-03-26T15:45:50;99175.38;;;8.89;69.81
31483;BME280;18103;52.246;8.052;2023-03-26T15:48:32;99170.38;;;8.77;70.56
31483;BME280;18103;52.246;8.052;2023-03-26T16:10:56;99199.59;;;8.73;70.54
31483;BME280;18103;52.246;8.052;2023-03-26T16:13:38;99209.03;;;8.66;70.58
31483;BME280;18103;52.246;8.052;2023-03-26T16:18:32;99201.13;;;8.66;70.52
31483;BME280;18103;52.246;8.052;2023-03-26T16:28:31;99210.75;;;8.46;69.13
31483;BME280;18103;52.246;8.052;2023-03-26T16:33:37;99218.78;;;8.45;69.55
31483;BME280;18103;52.246;8.052;2023-03-26T16:41:29;99224.97;;;8.24;68.89
31483;BME280;18103;52.246;8.052;2023-03-26T16:55:19;99247.94;;;8.01;68.38
31483;BME280;18103;52.246;8.052;2023-03-26T16:57:46;99255.66;;;7.93;67.12
31483;BME280;18103;52.246;8.052;2023-03-26T17:16:27;99289.75;;;7.62;66.53
31483;BME280;18103;52.246;8.052;2023-03-26T17:24:28;99299.69;;;7.26;67.72
31483;BME280;18103;52.246;8.052;2023-03-26T17:27:06;99311.75;;;7.28;67.53
31483;BME280;18103;52.246;8.052;2023-03-26T17:30:00;99311.53;;;7.20;67.48
31483;BME280;18103;52.246;8.052;2023-03-26T17:32:55;99326.75;;;7.38;65.50
31483;BME280;18103;52.246;8.052;2023-03-26T17:35:49;99328.03;;;7.11;67.26
31483;BME280;18103;52.246;8.052;2023-03-26T17:43:44;99353.09;;;7.15;66.21
31483;BME280;18103;52.246;8.052;2023-03-26T17:54:32;99382.69;;;6.94;67.16
31483;BME280;18103;52.246;8.052;2023-03-26T17:57:02;99384.47;;;6.82;67.00
31483;BME280;18103;52.246;8.052;2023-03-26T17:59:30;99386.97;;;6.84;64.92
31483;BME280;18103;52.246;8.052;2023-03-26T18:01:58;99386.03;;;6.74;66.63
31483;BME280;18103;52.246;8.052;2023-03-26T18:04:36;99396.91;;;6.58;67.41
31483;BME280;18103;52.246;8.052;2023-03-26T18:07:36;99395.34;;;6.55;67.18
31483;BME280;18103;52.246;8.052;2023-03-26T18:10:19;99412.00;;;6.54;66.61
31483;BME280;18103;52.246;8.052;2023-03-26T18:18:23;99434.41;;;6.36;68.10
31483;BME280;18103;52.246;8.052;2023-03-26T18:20:53;99440.69;;;6.33;67.67
31483;BME280;18103;52.246;8.052;2023-03-26T18:23:24;99442.50;;;6.32;67.21
31483;BME280;18103;52.246;8.052;2023-03-26T18:25:55;99446.84;;;6.21;66.10
31483;BME280;18103;52.246;8.052;2023-03-26T18:28:29;99440.53;;;6.12;65.25
31483;BME280;18103;52.246;8.052;2023-03-26T18:31:08;99448.59;;;5.97;66.86
31483;BME280;18103;52.246;8.052;2023-03-26T18:33:43;99450.91;;;5.89;65.93
31483;BME280;18103;52.246;8.052;2023-03-26T18:36:10;99456.19;;;5.76;66.87
31483;BME280;18103;52.246;8.052;2023-03-26T18:38:35;99458.47;;;5.81;67.71
31483;BME280;18103;52.246;8.052;2023-03-26T18:41:01;99472.81;;;5.64;67.82
31483;BME280;18103;52.246;8.052;2023-03-26T18:43:28;99474.63;;;5.75;68.64
31483;BME280;18103;52.246;8.052;2023-03-26T18:45:54;99482.94;;;5.69;67.66
31483;BME280;18103;52.246;8.052;2023-03-26T18:48:24;99481.94;;;5.58;68.31
31483;BME280;18103;52.246;8.052;2023-03-26T18:50:53;99488.34;;;5.54;67.73
31483;BME280;18103;52.246;8.052;2023-03-26T18:53:25;99494.50;;;5.53;67.99
31483;BME280;18103;52.246;8.052;2023-03-26T18:55:54;99500.78;;;5.51;68.07
31483;BME280;18103;52.246;8.052;2023-03-26T18:58:24;99500.91;;;5.49;68.43
31483;BME280;18103;52.246;8.052;2023-03-26T19:00:57;99508.47;;;5.41;68.88
31483;BME280;18103;52.246;8.052;2023-03-26T19:03:24;99509.19;;;5.43;68.36
31483;BME280;18103;52.246;8.052;2023-03-26T19:05:54;99520.00;;;5.25;69.92
31483;BME280;18103;52.246;8.052;2023-03-26T19:08:21;99526.69;;;5.29;68.96
31483;BME280;18103;52.246;8.052;2023-03-26T19:10:49;99526.81;;;5.28;69.76
31483;BME280;18103;52.246;8.052;2023-03-26T19:13:15;99529.81;;;5.22;69.93
31483;BME280;18103;52.246;8.052;2023-03-26T19:15:42;99528.81;;;5.11;70.58
31483;BME280;18103;52.246;8.052;2023-03-26T19:18:16;99538.13;;;5.03;70.35
31483;BME280;18103;52.246;8.052;2023-03-26T19:20:48;99538.34;;;5.12;69.79
31483;BME280;18103;52.246;8.052;2023-03-26T19:23:19;99543.47;;;5.01;70.14
31483;BME280;18103;52.246;8.052;2023-03-26T19:25:49;99551.00;;;4.93;70.22
31483;BME280;18103;52.246;8.052;2023-03-26T19:28:29;99558.94;;;4.91;70.47
31483;BME280;18103;52.246;8.052;2023-03-26T19:33:39;99555.38;;;4.79;71.15
31483;BME280;18103;52.246;8.052;2023-03-26T19:38:51;99567.06;;;4.87;70.17
31483;BME280;18103;52.246;8.052;2023-03-26T19:44:00;99582.25;;;4.69;69.49
31483;BME280;18103;52.246;8.052;2023-03-26T19:46:31;99586.91;;;4.51;70.48
31483;BME280;18103;52.246;8.052;2023-03-26T19:48:57;99583.66;;;4.60;70.13
31483;BME280;18103;52.246;8.052;2023-03-26T19:51:36;99582.84;;;4.59;69.95
31483;BME280;18103;52.246;8.052;2023-03-26T19:54:14;99587.50;;;4.41;70.05
31483;BME280;18103;52.246;8.052;2023-03-26T19:56:43;99590.09;;;4.41;70.50
31483;BME280;18103;52.246;8.052;2023-03-26T19:59:08;99600.66;;;4.40;71.16